Airfield :
LOGIN :

Register | Disclaimer

   EN    FR    IT 

 










Legend :    VFR   Marginal VFR   IFR   Intensive IFR   Very Intensive IFR
Visi :
Ceiling :
>= 8 km
>= 3000ft
5 to 8 km
1000 to 3000 ft
1500m to 5 km
500 to 1000 ft
800 to 1500m
200 to 500 ft
< 800m
< 200 ft
Symbols :   Thunderstorms  Fog  Heavy snow  Heavy precipitations  Wind > 20 kt
SIGMETs :     Misc.  Thunderstorms  Icing  Turbulence  Mountain Waves  Volcanic Ashes







- Airport Elevation : 1115 ft
- IATA code : GRZ


LOWG - Graz

CURRENT METAR :
  • 152050Z VRB02KT CAVOK 17/15 Q1015 NOSIG

EXPIRED METARs :
  • 152020Z VRB01KT CAVOK 18/14 Q1015 NOSIG
  • 151950Z 34004KT CAVOK 19/14 Q1015 NOSIG
  • 151920Z 34005KT CAVOK 18/14 Q1015 NOSIG
  • 151850Z 29004KT 240V350 9999 FEW050 SCT120 19/15 Q1015 NOSIG
  • 151820Z 28003KT 200V330 9999 FEW050 BKN120 20/15 Q1015 NOSIG

TAF TAF LOWG
Valid from the 15 at 18:00 until the 16 at 18:00 UTC


151715Z 1518/1618 VRB02KT CAVOK TX24/1611Z TN13/1603Z
TEMPO 1518/1520 FEW040 FEW050CB BKN080
PROB30
TEMPO 1601/1605 0600 BCFG FEW001 SCT120
BECMG 1606/1609 15006KT 9999 FEW040 SCT120
TEMPO 1610/1617 FEW040 FEW050CB SCT100
No reported NOTAMs for that airfield.



MET'MAP, your aeronautical weather chart ! - Copyright ORBIFLY December 2007 - Disclaimer

ORBIFLY MET'MAP TEAM :

Programming & Development : Alexandra Zaïnal
Concept & Development : Baudouin d'Aumeries
Co-Development & Prog : Marc-Olivier Méhu
Technical & hardware support : Manuel Goepfert

Contact : metmap@orbifly.com




SOURCES & CREDITS :

   NOAA